»·PEaware :: N899M KLAS-KSAC

N899M :: KLAS-KSAC

FLIGHT INFORMATION

Flight Status: Arrived
Operator: Privately registered:
United States
More flights under this callsign
Pilot: Robert C. (30425)
Aircraft: Unknown
(EPIC)
More flights by this aircraft type
Origin: KLAS McCarran Intl
United States
Destination: KSAC Sacramento Executive
United States
More flights between these airports :: More routes between these airports
Route: MCCRN5 BTY V105 OAL V244 LIN
File this flight plan on PilotEdge
Remarks:
Altitude:
(Current/Filed)
16,000ft
Speed:
(Current/Filed)
300kts
Departed: 29-Oct-20 05:13 PM
Arrived: 29-Oct-20 06:41 PM
Distance/Time
Traveled:
336nm/1:28
Distance/Time
To Go:
Arrived

Flight Plot

Page will automatically refresh every two minutes.

Flight plan parsing failed; only flown route is shown


Map Options




Map Legend


Flown Route
Filed Route
Departure Airport
Arrival Airport
Navaid (VOR, NDB)
Fix

Horizontal Profiles

Position Reports

Time Latitude Longitude Heading Altitude Ground
Speed
29-Oct-20 16:25 36.099458 -115.159744 116 2093ft 0kts
29-Oct-20 16:26 36.099458 -115.159744 116 2093ft 0kts
29-Oct-20 16:27 36.099458 -115.159744 116 2093ft 0kts
29-Oct-20 16:28 36.099458 -115.159744 116 2093ft 0kts
29-Oct-20 16:29 36.099458 -115.159744 116 2093ft 0kts
29-Oct-20 16:30 36.099458 -115.159744 116 2093ft 0kts
29-Oct-20 16:31 36.099458 -115.159744 116 2093ft 0kts
29-Oct-20 16:32 36.099458 -115.159744 116 2093ft 0kts
29-Oct-20 16:33 36.099458 -115.159744 116 2093ft 0kts
29-Oct-20 16:34 36.099458 -115.159744 116 2093ft 0kts
29-Oct-20 16:35 36.099458 -115.159744 116 2093ft 0kts
29-Oct-20 16:36 36.099458 -115.159744 116 2093ft 0kts
29-Oct-20 16:37 36.099458 -115.159744 116 2093ft 0kts
29-Oct-20 16:38 36.099458 -115.159744 116 2093ft 0kts
29-Oct-20 16:39 36.099458 -115.159744 116 2093ft 0kts
29-Oct-20 16:40 36.099458 -115.159744 116 2093ft 0kts
29-Oct-20 16:41 36.099458 -115.159744 116 2093ft 0kts
29-Oct-20 16:42 36.099458 -115.159744 116 2093ft 0kts
29-Oct-20 16:43 36.099458 -115.159744 116 2093ft 0kts
29-Oct-20 16:44 36.099458 -115.159744 116 2093ft 0kts
29-Oct-20 16:45 36.099458 -115.159744 116 2093ft 0kts
29-Oct-20 16:46 36.099458 -115.159744 116 2093ft 0kts
29-Oct-20 16:47 36.099458 -115.159744 116 2093ft 0kts
29-Oct-20 16:48 36.099458 -115.159744 116 2093ft 0kts
29-Oct-20 16:49 36.099458 -115.159744 116 2093ft 0kts
29-Oct-20 16:50 36.099458 -115.159744 116 2093ft 0kts
29-Oct-20 16:51 36.099458 -115.159744 116 2093ft 0kts
29-Oct-20 16:52 36.099458 -115.159744 116 2093ft 0kts
29-Oct-20 16:53 36.099458 -115.159744 116 2093ft 0kts
29-Oct-20 16:54 36.099458 -115.159744 116 2093ft 0kts
29-Oct-20 16:55 36.099458 -115.159744 116 2093ft 0kts
29-Oct-20 16:56 36.099458 -115.159744 116 2093ft 0kts
29-Oct-20 16:57 36.099458 -115.159744 116 2093ft 0kts
29-Oct-20 16:58 36.099458 -115.159744 116 2093ft 0kts
29-Oct-20 16:59 36.099458 -115.159744 116 2093ft 0kts
29-Oct-20 17:00 36.099458 -115.159744 116 2093ft 0kts
29-Oct-20 17:01 36.099458 -115.159744 116 2093ft 0kts
29-Oct-20 17:02 36.099458 -115.159744 116 2093ft 0kts
29-Oct-20 17:03 36.099458 -115.159744 116 2093ft 0kts
29-Oct-20 17:04 36.099458 -115.159744 116 2093ft 0kts
29-Oct-20 17:05 36.099458 -115.159744 116 2093ft 0kts
29-Oct-20 17:06 36.099458 -115.159744 116 2093ft 0kts
29-Oct-20 17:07 36.099458 -115.159744 116 2093ft 0kts
29-Oct-20 17:08 36.099452 -115.159729 116 2093ft 0kts
29-Oct-20 17:09 36.099774 -115.158679 104 2088ft 6kts
29-Oct-20 17:10 36.099858 -115.157608 86 2085ft 0kts
29-Oct-20 17:11 36.099736 -115.156921 125 2084ft 16kts
29-Oct-20 17:12 36.086453 -115.164010 207 2363ft 147kts
29-Oct-20 17:13 36.037616 -115.193270 205 4272ft 233kts
29-Oct-20 17:14 35.991149 -115.256202 231 6201ft 263kts
29-Oct-20 17:15 35.944166 -115.328143 231 8113ft 274kts
29-Oct-20 17:16 35.932015 -115.418704 266 10009ft 277kts
29-Oct-20 17:17 35.926107 -115.514229 266 11915ft 281kts
29-Oct-20 17:18 35.919809 -115.610764 266 13818ft 284kts
29-Oct-20 17:19 35.913390 -115.707875 266 15718ft 286kts
29-Oct-20 17:20 35.906609 -115.809569 266 16027ft 303kts
29-Oct-20 17:21 35.899583 -115.913237 266 16027ft 304kts
29-Oct-20 17:22 35.931640 -116.000281 323 16023ft 298kts
29-Oct-20 17:23 35.999584 -116.059270 325 16025ft 298kts
29-Oct-20 17:24 36.067791 -116.117225 325 16026ft 298kts
29-Oct-20 17:25 36.136111 -116.175387 325 16027ft 298kts
29-Oct-20 17:26 36.204635 -116.233849 325 16027ft 299kts
29-Oct-20 17:27 36.273020 -116.292319 325 16027ft 299kts
29-Oct-20 17:28 36.341170 -116.350714 325 16027ft 299kts
29-Oct-20 17:29 36.409501 -116.409392 325 16027ft 299kts
29-Oct-20 17:30 36.477806 -116.468175 325 16027ft 299kts
29-Oct-20 17:31 36.545999 -116.526990 325 16027ft 299kts
29-Oct-20 17:32 36.614143 -116.585893 325 16026ft 299kts
29-Oct-20 17:33 36.682255 -116.644896 325 16026ft 298kts
29-Oct-20 17:34 36.750541 -116.704180 325 16026ft 299kts
29-Oct-20 17:35 36.818873 -116.762944 326 16030ft 298kts
29-Oct-20 17:36 36.887692 -116.820449 326 16068ft 298kts
29-Oct-20 17:37 36.956440 -116.878001 326 16130ft 297kts
29-Oct-20 17:38 37.024846 -116.935381 325 16145ft 297kts
29-Oct-20 17:39 37.093805 -116.993365 325 16145ft 298kts
29-Oct-20 17:40 37.162980 -117.051674 324 16146ft 301kts
29-Oct-20 17:42 37.232768 -117.110622 325 16146ft 303kts
29-Oct-20 17:43 37.302933 -117.170018 325 16146ft 304kts
29-Oct-20 17:44 37.373140 -117.229589 325 16113ft 306kts
29-Oct-20 17:45 37.443623 -117.289530 325 16100ft 306kts
29-Oct-20 17:46 37.513908 -117.349441 325 16100ft 305kts
29-Oct-20 17:47 37.584306 -117.409587 325 16097ft 305kts
29-Oct-20 17:48 37.654450 -117.469656 325 16100ft 305kts
29-Oct-20 17:49 37.724626 -117.529925 325 16099ft 304kts
29-Oct-20 17:50 37.794145 -117.589750 325 16099ft 302kts
29-Oct-20 17:51 37.863312 -117.649404 325 16082ft 301kts
29-Oct-20 17:52 37.932626 -117.709320 324 16059ft 301kts
29-Oct-20 17:53 37.995951 -117.776023 288 16075ft 298kts
29-Oct-20 17:54 37.999178 -117.880392 267 16049ft 298kts
29-Oct-20 17:55 37.995393 -117.985365 266 16043ft 298kts
29-Oct-20 17:56 37.991421 -118.090679 266 16037ft 298kts
29-Oct-20 17:57 37.987368 -118.195602 266 16034ft 298kts
29-Oct-20 17:58 37.983227 -118.300396 266 16032ft 298kts
29-Oct-20 17:59 37.978987 -118.405306 266 16060ft 298kts
29-Oct-20 18:00 37.974629 -118.510821 266 16107ft 299kts
29-Oct-20 18:00 37.970934 -118.598548 266 16140ft 299kts
29-Oct-20 18:02 37.965749 -118.721491 266 16155ft 300kts
29-Oct-20 18:02 37.961869 -118.809545 266 16164ft 300kts
29-Oct-20 18:04 37.956327 -118.932612 266 16164ft 300kts
29-Oct-20 18:04 37.952272 -119.021039 267 16163ft 301kts
29-Oct-20 18:06 37.946501 -119.144528 267 16164ft 302kts
29-Oct-20 18:06 37.951474 -119.232892 276 16163ft 302kts
29-Oct-20 18:07 37.959570 -119.338760 276 16163ft 302kts
29-Oct-20 18:08 37.967580 -119.444512 276 16182ft 301kts
29-Oct-20 18:09 37.975499 -119.550330 276 16181ft 302kts
29-Oct-20 18:10 37.983334 -119.656310 275 16173ft 302kts
29-Oct-20 18:11 37.991101 -119.762665 275 16163ft 302kts
29-Oct-20 18:12 37.998752 -119.868777 275 16105ft 303kts
29-Oct-20 18:13 38.006341 -119.975397 275 16051ft 304kts
29-Oct-20 18:14 38.013853 -120.082317 275 16010ft 303kts
29-Oct-20 18:15 38.021248 -120.188951 275 15967ft 303kts
29-Oct-20 18:16 38.028531 -120.295391 275 15938ft 303kts
29-Oct-20 18:17 38.035720 -120.401906 275 16025ft 300kts
29-Oct-20 18:18 38.042761 -120.507615 275 16043ft 301kts
29-Oct-20 18:19 38.062875 -120.607689 304 15459ft 281kts
29-Oct-20 18:20 38.103256 -120.685933 303 14251ft 255kts
29-Oct-20 18:21 38.141002 -120.759583 303 13043ft 244kts
29-Oct-20 18:22 38.177649 -120.831253 302 11841ft 240kts
29-Oct-20 18:23 38.213814 -120.902136 302 10643ft 238kts
29-Oct-20 18:24 38.248735 -120.970743 302 10049ft 217kts
29-Oct-20 18:25 38.280983 -121.034172 303 10038ft 210kts
29-Oct-20 18:26 38.312396 -121.096116 303 10025ft 207kts
29-Oct-20 18:27 38.343547 -121.157657 303 10011ft 206kts
29-Oct-20 18:28 38.375372 -121.220623 303 9124ft 219kts
29-Oct-20 18:29 38.408615 -121.286550 303 7660ft 218kts
29-Oct-20 18:30 38.443421 -121.348448 312 6112ft 215kts
29-Oct-20 18:31 38.486914 -121.404479 318 4007ft 209kts
29-Oct-20 18:32 38.535814 -121.416785 351 2662ft 165kts
29-Oct-20 18:33 38.560707 -121.454889 245 2323ft 167kts
29-Oct-20 18:34 38.530682 -121.479123 215 712ft 110kts
29-Oct-20 18:35 38.499607 -121.505319 214 571ft 175kts
29-Oct-20 18:36 38.480162 -121.490381 35 1561ft 202kts
29-Oct-20 18:37 38.514668 -121.463727 25 1625ft 99kts
29-Oct-20 18:38 38.538134 -121.451741 333 814ft 86kts
29-Oct-20 18:39 38.533080 -121.477211 217 426ft 97kts
29-Oct-20 18:40 38.514170 -121.493301 233 22ft 19kts
29-Oct-20 18:41 38.513542 -121.495136 267 22ft 0kts
29-Oct-20 18:42 38.517060 -121.492604 34 23ft 19kts
29-Oct-20 18:43 38.519420 -121.492198 281 24ft 6kts
29-Oct-20 18:44 38.519676 -121.494157 270 24ft 7kts
29-Oct-20 18:45 38.520254 -121.496293 346 24ft 5kts
29-Oct-20 18:46 38.520333 -121.496102 193 24ft 0kts
29-Oct-20 18:47 38.520333 -121.496102 193 24ft 0kts
29-Oct-20 18:48 38.520333 -121.496102 193 24ft 0kts
29-Oct-20 18:49 38.520333 -121.496102 193 24ft 0kts
29-Oct-20 18:50 38.520333 -121.496102 193 24ft 0kts
29-Oct-20 18:51 38.520333 -121.496102 193 24ft 0kts
29-Oct-20 18:52 38.520333 -121.496102 193 24ft 0kts
29-Oct-20 18:53 38.520333 -121.496102 193 24ft 0kts
29-Oct-20 18:54 38.520333 -121.496102 193 24ft 0kts

Navigation Log

Ident Type
Flight plan parsing failed, navigation log unavailable